Time;durP1;ratioP1;P1;durP2;ratioP2;P2;SDS_P1;SDS_P2;PMS_P1;PMS_P2;Temp;Humidity;BMP_temperature;BMP_pressure;BME280_temperature;BME280_humidity;BME280_pressure;Samples;Min_cycle;Max_cycle;Signal;HPM_P1;HPM_P2
2021/07/01 00:00:55;;;;;;;2.67;1.42;;;24.40;48.80;;;;;;5015466;28;20025;-59
2021/07/01 00:03:21;;;;;;;2.05;1.42;;;24.40;48.80;;;;;;5024262;28;20029;-60
2021/07/01 00:05:46;;;;;;;2.20;1.60;;;24.40;48.80;;;;;;5018674;28;20052;-59
2021/07/01 00:08:12;;;;;;;2.40;1.50;;;24.40;48.80;;;;;;5021286;28;20030;-59
2021/07/01 00:10:38;;;;;;;2.00;1.70;;;24.40;48.80;;;;;;5015402;28;20021;-57
2021/07/01 00:13:04;;;;;;;1.48;1.30;;;24.40;48.80;;;;;;5016520;28;20021;-58
2021/07/01 00:15:32;;;;;;;3.10;1.70;;;24.40;48.80;;;;;;5011127;28;20076;-58
2021/07/01 00:17:59;;;;;;;1.77;1.10;;;24.40;48.80;;;;;;5015824;28;20061;-60
2021/07/01 00:20:25;;;;;;;1.95;1.33;;;24.40;48.80;;;;;;5010693;28;20034;-60
2021/07/01 00:22:52;;;;;;;1.83;1.30;;;24.40;48.80;;;;;;5015500;28;20033;-57
2021/07/01 00:25:19;;;;;;;1.50;1.40;;;24.40;48.90;;;;;;5023874;28;20025;-57
2021/07/01 00:27:46;;;;;;;2.10;1.52;;;24.40;48.90;;;;;;5008817;28;20033;-59
2021/07/01 00:30:14;;;;;;;2.20;1.42;;;24.40;48.90;;;;;;5012411;28;20030;-56
2021/07/01 00:32:40;;;;;;;3.10;1.75;;;24.40;48.90;;;;;;5015646;28;20029;-58
2021/07/01 00:35:07;;;;;;;2.15;1.33;;;24.30;48.90;;;;;;5020873;28;20038;-56
2021/07/01 00:37:35;;;;;;;1.15;1.05;;;24.40;49.00;;;;;;5014751;28;20044;-59
2021/07/01 00:40:02;;;;;;;2.28;1.40;;;24.30;48.90;;;;;;5023581;28;20052;-55
2021/07/01 00:42:27;;;;;;;1.75;1.30;;;24.30;48.90;;;;;;5010796;28;20053;-59
2021/07/01 00:44:53;;;;;;;1.83;1.40;;;24.30;48.90;;;;;;5019191;28;20350;-58
2021/07/01 00:47:19;;;;;;;2.20;1.40;;;24.30;49.00;;;;;;5015932;28;20692;-60
2021/07/01 00:49:46;;;;;;;1.27;1.10;;;24.30;48.90;;;;;;5018778;28;20030;-58
2021/07/01 00:52:12;;;;;;;1.77;1.42;;;24.30;49.60;;;;;;5020685;28;20033;-58
2021/07/01 00:54:38;;;;;;;1.73;1.08;;;24.30;49.00;;;;;;5014405;28;20038;-58
2021/07/01 00:57:06;;;;;;;1.77;1.30;;;24.30;49.00;;;;;;5019987;28;20033;-55
2021/07/01 00:59:33;;;;;;;2.05;1.48;;;24.30;49.00;;;;;;5014067;28;20022;-57
2021/07/01 01:01:58;;;;;;;2.17;1.23;;;24.30;49.00;;;;;;5018580;28;20044;-54
2021/07/01 01:04:24;;;;;;;1.65;1.10;;;24.30;49.00;;;;;;5015013;28;20025;-55
2021/07/01 01:06:51;;;;;;;2.05;1.50;;;24.30;49.00;;;;;;5021299;28;20034;-56
2021/07/01 01:09:17;;;;;;;1.98;1.38;;;24.30;49.10;;;;;;5010701;28;20037;-58
2021/07/01 01:11:43;;;;;;;1.58;1.30;;;24.30;49.10;;;;;;5014813;28;20029;-54
2021/07/01 01:14:13;;;;;;;2.28;1.40;;;24.30;49.10;;;;;;5032040;28;20034;-57
2021/07/01 01:16:54;;;;;;;2.45;1.50;;;24.30;49.10;;;;;;5013278;28;20037;-55
2021/07/01 01:19:21;;;;;;;1.98;1.25;;;24.20;49.10;;;;;;5014969;28;20049;-59
2021/07/01 01:21:49;;;;;;;1.52;1.20;;;24.20;49.10;;;;;;5019239;28;20168;-57
2021/07/01 01:24:16;;;;;;;2.25;1.70;;;24.20;49.10;;;;;;5012680;28;20026;-57
2021/07/01 01:26:42;;;;;;;2.50;1.40;;;24.30;49.10;;;;;;5006107;28;20072;-59
2021/07/01 01:29:08;;;;;;;2.28;1.20;;;24.30;49.20;;;;;;5018700;28;20033;-58
2021/07/01 01:31:37;;;;;;;1.85;1.30;;;24.30;49.10;;;;;;5015978;28;20112;-58
2021/07/01 01:34:04;;;;;;;2.55;1.42;;;24.30;49.10;;;;;;5015349;28;20425;-58
2021/07/01 01:36:29;;;;;;;2.10;1.52;;;24.30;49.10;;;;;;5012445;28;20095;-58
2021/07/01 01:38:56;;;;;;;2.67;1.35;;;24.20;49.10;;;;;;5014365;28;20039;-55
2021/07/01 01:41:27;;;;;;;1.83;1.15;;;24.20;49.10;;;;;;5020778;28;20025;-55
2021/07/01 01:43:54;;;;;;;2.13;1.35;;;24.20;49.10;;;;;;5015563;28;20038;-58
2021/07/01 01:46:21;;;;;;;1.80;1.27;;;24.20;49.10;;;;;;5012441;28;20103;-54
2021/07/01 01:48:53;;;;;;;1.95;1.38;;;24.20;49.10;;;;;;5000099;28;20492;-56
2021/07/01 01:51:21;;;;;;;1.95;1.30;;;24.20;49.10;;;;;;5009922;28;20029;-58
2021/07/01 01:53:50;;;;;;;1.50;1.05;;;24.20;49.10;;;;;;5029047;28;21581;-56
2021/07/01 01:56:19;;;;;;;1.65;1.20;;;24.20;49.10;;;;;;5017823;28;20026;-57
2021/07/01 01:58:48;;;;;;;2.10;1.33;;;24.20;49.00;;;;;;5026373;28;20026;-58
2021/07/01 02:01:32;;;;;;;2.10;1.50;;;24.20;49.10;;;;;;5016549;28;20092;-55
2021/07/01 02:04:03;;;;;;;3.50;1.40;;;24.20;49.10;;;;;;5017310;28;20022;-59
2021/07/01 02:06:49;;;;;;;2.80;1.10;;;24.20;49.10;;;;;;5015309;28;20041;-56
2021/07/01 02:09:18;;;;;;;1.50;1.17;;;24.20;49.10;;;;;;5033096;28;20033;-58
2021/07/01 02:11:51;;;;;;;2.25;1.42;;;24.20;49.10;;;;;;5015416;28;20029;-59
2021/07/01 02:14:19;;;;;;;1.30;1.10;;;24.20;49.30;;;;;;5007868;28;20041;-59
2021/07/01 02:17:09;;;;;;;1.80;1.23;;;24.20;49.10;;;;;;5016455;28;20029;-58
2021/07/01 02:19:35;;;;;;;3.22;1.30;;;24.10;49.10;;;;;;5013589;28;20485;-55
2021/07/01 02:22:03;;;;;;;1.40;1.10;;;24.10;49.00;;;;;;5014841;28;20333;-57
2021/07/01 02:24:30;;;;;;;1.27;0.98;;;24.10;49.00;;;;;;5011995;28;20030;-59
2021/07/01 02:26:57;;;;;;;2.50;1.33;;;24.20;49.10;;;;;;5017061;28;20065;-59
2021/07/01 02:29:23;;;;;;;2.65;1.30;;;24.10;49.00;;;;;;5013605;28;20064;-58
2021/07/01 02:31:58;;;;;;;1.63;1.30;;;24.10;49.00;;;;;;5010313;28;20022;-58
2021/07/01 02:34:24;;;;;;;2.78;1.23;;;24.20;49.00;;;;;;5013580;28;20048;-59
2021/07/01 02:37:13;;;;;;;2.85;1.42;;;24.10;49.00;;;;;;4993683;28;20069;-58
2021/07/01 02:40:05;;;;;;;1.20;1.08;;;24.10;49.00;;;;;;5015420;28;20022;-58
2021/07/01 02:42:42;;;;;;;2.65;1.17;;;24.10;49.00;;;;;;5011515;28;20462;-59
2021/07/01 02:45:11;;;;;;;3.22;1.60;;;24.10;49.00;;;;;;5016280;28;20149;-57
2021/07/01 02:47:50;;;;;;;1.77;1.08;;;24.10;49.00;;;;;;5020100;28;20022;-58
2021/07/01 02:50:16;;;;;;;1.27;0.98;;;24.10;49.00;;;;;;5014144;28;20027;-57
2021/07/01 02:52:42;;;;;;;2.05;1.20;;;24.10;49.00;;;;;;5017229;28;20327;-56
2021/07/01 02:55:10;;;;;;;1.83;1.15;;;24.10;49.00;;;;;;5020873;28;20059;-59
2021/07/01 02:57:38;;;;;;;1.30;1.00;;;24.10;49.00;;;;;;5019396;28;20030;-59
2021/07/01 03:00:11;;;;;;;1.50;1.00;;;24.10;49.00;;;;;;5029188;28;20376;-58
2021/07/01 03:02:44;;;;;;;2.35;1.15;;;24.10;49.00;;;;;;5018039;28;21803;-58
2021/07/01 03:05:30;;;;;;;1.52;0.95;;;24.10;49.00;;;;;;5014668;28;20049;-59
2021/07/01 03:07:56;;;;;;;2.03;1.17;;;24.10;49.00;;;;;;5015324;28;20459;-55
2021/07/01 03:10:23;;;;;;;2.00;1.17;;;24.10;49.00;;;;;;5019547;28;20163;-59
2021/07/01 03:13:02;;;;;;;3.13;1.48;;;24.10;49.00;;;;;;5018052;28;20025;-58
2021/07/01 03:15:31;;;;;;;1.95;1.10;;;24.10;49.00;;;;;;5017381;28;20033;-58
2021/07/01 03:17:57;;;;;;;2.38;1.27;;;24.10;49.00;;;;;;5020897;28;20038;-59
2021/07/01 03:20:38;;;;;;;1.95;1.20;;;24.10;49.00;;;;;;5022717;28;21637;-56
2021/07/01 03:23:22;;;;;;;2.25;1.20;;;24.10;49.00;;;;;;5020051;28;20053;-56
2021/07/01 03:25:49;;;;;;;1.58;1.05;;;24.00;49.00;;;;;;5023218;28;20361;-59
2021/07/01 03:28:16;;;;;;;1.80;1.17;;;24.00;48.90;;;;;;5036643;28;20025;-60
2021/07/01 03:30:43;;;;;;;2.03;0.95;;;24.00;48.90;;;;;;5018996;28;20036;-60
2021/07/01 03:33:08;;;;;;;2.00;1.27;;;24.00;48.90;;;;;;5019393;28;20038;-58
2021/07/01 03:35:35;;;;;;;1.70;1.13;;;24.00;48.90;;;;;;5018609;28;20046;-58
2021/07/01 03:38:20;;;;;;;1.55;1.20;;;24.00;48.90;;;;;;5022224;28;20052;-59
2021/07/01 03:40:58;;;;;;;1.95;0.98;;;24.00;48.90;;;;;;5015490;28;20022;-59
2021/07/01 03:43:24;;;;;;;1.95;0.90;;;24.00;48.90;;;;;;5012076;28;20026;-58
2021/07/01 03:45:55;;;;;;;1.52;0.90;;;24.00;48.90;;;;;;5013870;28;20152;-60
2021/07/01 03:48:22;;;;;;;2.42;1.10;;;24.00;48.90;;;;;;5022282;28;20826;-57
2021/07/01 03:51:09;;;;;;;1.92;1.10;;;24.00;48.90;;;;;;5021451;28;20033;-55
2021/07/01 03:53:46;;;;;;;2.55;1.08;;;24.00;48.90;;;;;;5017643;28;20034;-58
2021/07/01 03:56:14;;;;;;;1.65;1.02;;;24.00;48.90;;;;;;5003793;28;20033;-56
2021/07/01 03:58:40;;;;;;;2.00;1.10;;;24.00;48.90;;;;;;5015510;28;20037;-59
2021/07/01 04:01:28;;;;;;;2.08;1.20;;;24.00;48.90;;;;;;5013720;28;21917;-58
2021/07/01 04:03:54;;;;;;;2.17;1.20;;;24.00;48.90;;;;;;5025093;28;20025;-55
2021/07/01 04:06:23;;;;;;;1.63;1.08;;;24.00;48.90;;;;;;5015307;28;20064;-58
2021/07/01 04:08:49;;;;;;;1.27;1.00;;;24.00;48.90;;;;;;5037296;28;20155;-60
2021/07/01 04:11:15;;;;;;;2.63;1.20;;;24.00;48.90;;;;;;5024020;28;20516;-59
2021/07/01 04:13:41;;;;;;;2.42;1.20;;;24.00;49.00;;;;;;5006705;28;20053;-60
2021/07/01 04:16:25;;;;;;;1.98;1.38;;;24.00;48.90;;;;;;5014648;28;20416;-57
2021/07/01 04:19:10;;;;;;;;;;;24.00;48.90;;;;;;5016622;28;20191;-59
2021/07/01 04:21:54;;;;;;;1.48;1.00;;;23.90;48.90;;;;;;5019381;28;20348;-56
2021/07/01 04:24:52;;;;;;;1.73;1.05;;;23.90;48.90;;;;;;5012800;28;20042;-59
2021/07/01 04:27:29;;;;;;;3.05;1.20;;;23.90;48.90;;;;;;5017049;28;20125;-60
2021/07/01 04:29:55;;;;;;;1.80;1.00;;;23.90;48.90;;;;;;5019063;28;20411;-60
2021/07/01 04:32:23;;;;;;;2.20;1.05;;;23.90;48.90;;;;;;5021166;28;20500;-60
2021/07/01 04:34:52;;;;;;;1.67;1.27;;;23.90;48.90;;;;;;5019124;28;20135;-58
2021/07/01 04:37:18;;;;;;;2.13;1.02;;;23.90;48.90;;;;;;5032815;28;20056;-59
2021/07/01 04:39:50;;;;;;;2.75;1.23;;;23.90;48.90;;;;;;5013887;28;20034;-57
2021/07/01 04:42:20;;;;;;;2.05;1.20;;;23.90;48.90;;;;;;5015821;28;20403;-59
2021/07/01 04:44:46;;;;;;;1.20;1.05;;;23.90;49.00;;;;;;5017942;28;20353;-59
2021/07/01 04:47:14;;;;;;;1.75;0.98;;;23.90;49.00;;;;;;5013749;28;20036;-59
2021/07/01 04:49:44;;;;;;;2.03;0.90;;;23.90;49.00;;;;;;5035746;28;20033;-58
2021/07/01 04:52:39;;;;;;;1.92;0.80;;;23.90;49.00;;;;;;4952363;28;20561;-57
2021/07/01 04:55:23;;;;;;;2.72;0.90;;;23.90;49.00;;;;;;5015764;28;20103;-58
2021/07/01 04:58:24;;;;;;;2.00;1.00;;;23.90;49.00;;;;;;4971283;28;20086;-60
2021/07/01 05:01:04;;;;;;;1.95;1.10;;;23.90;49.00;;;;;;5008810;28;20128;-58
2021/07/01 05:03:50;;;;;;;1.13;0.95;;;23.90;49.00;;;;;;4997227;28;20037;-57
2021/07/01 05:06:16;;;;;;;1.25;0.95;;;23.90;49.00;;;;;;5014820;28;20511;-55
2021/07/01 05:08:42;;;;;;;1.27;0.80;;;23.90;49.00;;;;;;5010793;28;20078;-57
2021/07/01 05:11:09;;;;;;;1.42;1.05;;;23.90;49.00;;;;;;5018723;28;20548;-60
2021/07/01 05:13:35;;;;;;;1.27;0.90;;;23.90;49.00;;;;;;5013430;28;20026;-59
2021/07/01 05:16:01;;;;;;;1.75;1.13;;;23.90;49.00;;;;;;5016518;28;20515;-58
2021/07/01 05:18:27;;;;;;;1.67;1.00;;;23.90;49.00;;;;;;4975935;28;1146905;-61
2021/07/01 05:21:28;;;;;;;1.90;1.00;;;23.90;49.00;;;;;;4979788;28;20045;-60
2021/07/01 05:24:33;;;;;;;1.23;0.90;;;23.90;49.10;;;;;;5012361;28;20042;-58
2021/07/01 05:27:17;;;;;;;1.58;1.00;;;23.90;49.20;;;;;;5017792;28;20056;-60
2021/07/01 05:30:09;;;;;;;1.42;1.00;;;23.90;49.20;;;;;;4999060;28;20034;-57
2021/07/01 05:32:53;;;;;;;1.73;0.98;;;23.90;49.20;;;;;;5012257;28;20068;-56
2021/07/01 05:35:25;;;;;;;2.42;1.13;;;23.90;49.30;;;;;;5013245;28;20140;-57
2021/07/01 05:37:53;;;;;;;1.45;0.90;;;23.90;49.30;;;;;;5014949;28;20029;-58
2021/07/01 05:40:22;;;;;;;1.60;1.17;;;23.90;49.30;;;;;;5025665;28;20073;-57
2021/07/01 05:42:49;;;;;;;1.77;1.10;;;23.90;49.30;;;;;;5019069;28;20471;-58
2021/07/01 05:45:15;;;;;;;1.52;0.98;;;23.90;49.20;;;;;;5017003;28;20026;-58
2021/07/01 05:47:42;;;;;;;1.48;0.95;;;23.90;49.20;;;;;;5019753;28;20037;-59
2021/07/01 05:50:10;;;;;;;2.00;0.80;;;23.90;49.20;;;;;;5013803;28;20033;-58
2021/07/01 05:52:42;;;;;;;2.22;1.05;;;23.90;49.30;;;;;;5017877;28;20040;-57
2021/07/01 05:55:08;;;;;;;1.70;1.00;;;23.80;49.20;;;;;;5026552;28;20057;-58
2021/07/01 05:57:34;;;;;;;2.85;0.95;;;23.90;49.30;;;;;;5015998;28;20022;-59
2021/07/01 06:00:00;;;;;;;1.45;1.08;;;23.90;49.30;;;;;;5010955;28;20028;-60
2021/07/01 06:02:26;;;;;;;2.45;1.33;;;23.90;49.30;;;;;;5021361;28;20033;-59
2021/07/01 06:04:51;;;;;;;2.22;1.00;;;23.90;49.30;;;;;;5015896;28;20037;-57
2021/07/01 06:07:38;;;;;;;1.95;1.10;;;23.90;49.30;;;;;;5017189;28;20056;-59
2021/07/01 06:10:06;;;;;;;3.00;1.38;;;23.80;49.30;;;;;;5014157;28;20034;-58
2021/07/01 06:12:33;;;;;;;2.88;1.40;;;23.80;49.30;;;;;;5014993;28;20040;-59
2021/07/01 06:14:59;;;;;;;2.50;1.27;;;23.80;49.30;;;;;;5021932;28;20041;-56
2021/07/01 06:17:32;;;;;;;2.53;1.17;;;23.80;49.30;;;;;;5012055;28;20041;-59
2021/07/01 06:20:01;;;;;;;3.50;1.47;;;23.80;49.30;;;;;;4993323;28;20065;-58
2021/07/01 06:22:28;;;;;;;1.58;1.20;;;23.80;49.40;;;;;;5005026;28;20037;-58
2021/07/01 06:24:55;;;;;;;2.15;1.20;;;23.80;49.40;;;;;;5011092;28;20087;-59
2021/07/01 06:27:27;;;;;;;1.73;1.17;;;23.80;49.40;;;;;;5018474;28;20025;-57
2021/07/01 06:29:54;;;;;;;2.97;1.38;;;23.80;49.50;;;;;;5016302;28;20030;-58
2021/07/01 06:32:20;;;;;;;3.78;1.70;;;23.80;49.60;;;;;;5014534;28;20033;-58
2021/07/01 06:34:46;;;;;;;3.15;1.63;;;23.80;49.60;;;;;;5018725;28;20471;-58
2021/07/01 06:37:13;;;;;;;3.15;1.50;;;23.80;49.70;;;;;;5013646;28;20026;-58
2021/07/01 06:40:00;;;;;;;1.85;1.30;;;23.80;49.70;;;;;;5015591;28;20100;-60
2021/07/01 06:42:54;;;;;;;2.78;1.27;;;23.80;49.80;;;;;;5014120;28;20061;-56
2021/07/01 06:45:38;;;;;;;2.53;1.63;;;23.80;49.80;;;;;;5008964;28;20152;-59
2021/07/01 06:48:23;;;;;;;;;;;23.80;49.80;;;;;;5015341;28;20064;-57
2021/07/01 06:51:08;;;;;;;3.08;1.42;;;23.80;49.90;;;;;;5003209;28;20311;-61
2021/07/01 06:53:54;;;;;;;3.30;1.10;;;23.70;49.90;;;;;;5002106;28;20492;-61
2021/07/01 06:56:40;;;;;;;2.50;1.30;;;23.80;49.90;;;;;;5008830;28;20168;-59
2021/07/01 06:59:14;;;;;;;2.97;1.55;;;23.80;49.90;;;;;;5016931;28;20025;-59
2021/07/01 07:01:41;;;;;;;1.70;1.23;;;23.90;50.00;;;;;;4999389;28;20031;-62
2021/07/01 07:04:09;;;;;;;2.92;1.60;;;23.90;50.00;;;;;;5007526;28;20245;-61
2021/07/01 07:06:36;;;;;;;1.65;1.17;;;23.90;49.90;;;;;;5003193;28;20041;-59
2021/07/01 07:09:02;;;;;;;2.33;1.50;;;23.90;49.90;;;;;;5002475;28;20045;-59
2021/07/01 07:11:29;;;;;;;2.05;1.30;;;23.90;49.80;;;;;;5004122;28;20109;-60
2021/07/01 07:13:56;;;;;;;2.45;1.40;;;24.00;49.70;;;;;;5001970;28;20425;-61
2021/07/01 07:16:23;;;;;;;2.08;1.40;;;24.00;49.60;;;;;;4994749;28;20046;-61
2021/07/01 07:18:51;;;;;;;3.15;1.40;;;24.10;49.60;;;;;;4998382;28;20050;-60
2021/07/01 07:21:20;;;;;;;1.73;1.20;;;24.10;49.50;;;;;;5009211;28;20034;-59
2021/07/01 07:23:53;;;;;;;2.35;1.20;;;24.10;49.40;;;;;;4994804;28;20038;-58
2021/07/01 07:26:22;;;;;;;2.83;1.48;;;24.20;49.30;;;;;;4993548;28;20126;-59
2021/07/01 07:28:50;;;;;;;2.22;1.38;;;24.20;49.30;;;;;;5007573;28;20041;-60
2021/07/01 07:31:27;;;;;;;1.83;1.42;;;24.20;49.20;;;;;;4998244;28;20057;-62
2021/07/01 07:33:54;;;;;;;2.65;1.52;;;24.20;49.10;;;;;;5000664;28;20037;-59
2021/07/01 07:36:22;;;;;;;2.80;1.55;;;24.20;49.10;;;;;;4993843;28;20455;-59
2021/07/01 07:38:52;;;;;;;2.08;1.15;;;24.30;49.00;;;;;;4999629;28;20331;-57
2021/07/01 07:41:19;;;;;;;2.63;1.50;;;24.30;49.00;;;;;;5008198;28;20101;-53
2021/07/01 07:43:47;;;;;;;2.80;1.42;;;24.30;48.90;;;;;;5014745;28;20040;-54
2021/07/01 07:46:16;;;;;;;2.60;1.70;;;24.30;49.00;;;;;;5014538;28;20022;-59
2021/07/01 07:48:43;;;;;;;2.50;1.60;;;24.30;49.00;;;;;;5005179;28;20156;-62
2021/07/01 07:51:11;;;;;;;1.92;1.38;;;24.40;49.00;;;;;;5007143;28;20022;-59
2021/07/01 07:53:39;;;;;;;2.63;1.40;;;24.40;48.90;;;;;;4999244;28;20041;-61
2021/07/01 07:56:11;;;;;;;2.50;1.70;;;24.40;48.80;;;;;;5004776;28;20073;-59
2021/07/01 07:58:40;;;;;;;2.35;1.40;;;24.40;48.80;;;;;;5023008;28;20438;-60
2021/07/01 08:01:11;;;;;;;2.30;1.77;;;24.40;48.80;;;;;;5015284;28;20450;-59
2021/07/01 08:03:39;;;;;;;2.60;1.65;;;24.40;48.80;;;;;;5021370;28;20025;-60
2021/07/01 08:06:06;;;;;;;2.75;1.73;;;24.40;48.90;;;;;;5020192;28;20026;-54
2021/07/01 08:08:35;;;;;;;2.45;1.70;;;24.50;48.90;;;;;;5013145;28;20080;-58
2021/07/01 08:11:03;;;;;;;3.00;1.88;;;24.50;49.00;;;;;;5017863;28;20488;-54
2021/07/01 08:13:29;;;;;;;2.65;1.70;;;24.60;49.20;;;;;;5036209;28;20041;-57
2021/07/01 08:15:56;;;;;;;2.58;1.70;;;24.60;49.20;;;;;;5036333;28;20045;-57
2021/07/01 08:18:41;;;;;;;3.85;2.15;;;24.70;49.20;;;;;;5022209;28;20153;-59
2021/07/01 08:21:08;;;;;;;2.78;1.65;;;24.70;49.10;;;;;;5012439;28;20057;-52
2021/07/01 08:23:36;;;;;;;4.38;2.00;;;24.80;49.10;;;;;;5012820;28;20018;-56
2021/07/01 08:26:04;;;;;;;2.88;1.88;;;24.80;49.00;;;;;;5027967;28;20037;-60
2021/07/01 08:28:31;;;;;;;3.78;1.98;;;24.90;49.00;;;;;;5018503;28;20022;-55
2021/07/01 08:31:06;;;;;;;2.47;1.65;;;25.00;48.90;;;;;;5023364;28;20022;-58
2021/07/01 08:33:35;;;;;;;2.85;1.85;;;25.00;48.90;;;;;;5024596;28;20421;-58
2021/07/01 08:36:03;;;;;;;2.67;2.10;;;25.00;48.80;;;;;;5019671;28;20050;-59
2021/07/01 08:38:36;;;;;;;2.90;1.88;;;25.10;48.80;;;;;;5025114;28;20393;-56
2021/07/01 08:41:10;;;;;;;2.83;1.80;;;25.10;48.60;;;;;;5016486;28;20045;-57
2021/07/01 08:43:41;;;;;;;1.85;1.50;;;25.20;48.50;;;;;;5014668;28;20037;-60
2021/07/01 08:46:14;;;;;;;2.83;1.80;;;25.20;48.50;;;;;;5006643;28;20087;-62
2021/07/01 08:49:09;;;;;;;2.90;1.85;;;25.30;48.60;;;;;;5007469;28;21218;-62
2021/07/01 08:51:40;;;;;;;2.75;1.90;;;25.30;48.40;;;;;;5005051;28;20041;-60
2021/07/01 08:54:30;;;;;;;2.85;1.80;;;25.30;48.30;;;;;;5009975;28;20030;-55
2021/07/01 08:56:57;;;;;;;2.03;1.70;;;25.30;48.20;;;;;;5008042;28;20323;-58
2021/07/01 08:59:25;;;;;;;4.32;2.28;;;25.30;48.20;;;;;;5005747;28;20065;-59
2021/07/01 09:02:02;;;;;;;2.40;1.90;;;25.30;48.10;;;;;;5007089;28;20049;-60
2021/07/01 09:04:30;;;;;;;2.70;1.85;;;25.30;48.00;;;;;;5010968;28;20183;-59
2021/07/01 09:07:02;;;;;;;3.13;1.80;;;25.30;48.00;;;;;;5023579;28;20026;-57
2021/07/01 09:09:34;;;;;;;4.53;2.22;;;25.30;47.90;;;;;;5022724;28;20113;-54
2021/07/01 09:12:06;;;;;;;2.47;1.77;;;25.30;47.90;;;;;;5021241;28;20033;-57
2021/07/01 09:14:32;;;;;;;2.13;1.60;;;25.30;47.90;;;;;;5023022;28;20360;-57
2021/07/01 09:17:06;;;;;;;3.75;2.10;;;25.30;47.90;;;;;;5022482;28;20396;-56
2021/07/01 09:19:33;;;;;;;3.20;1.90;;;25.30;47.90;;;;;;5022676;28;20428;-59
2021/07/01 09:22:00;;;;;;;3.42;2.03;;;25.30;47.90;;;;;;5022067;28;20364;-53
2021/07/01 09:24:28;;;;;;;2.47;1.80;;;25.30;47.90;;;;;;5023549;28;20117;-60
2021/07/01 09:26:57;;;;;;;3.00;2.10;;;25.20;47.90;;;;;;5023897;28;20033;-58
2021/07/01 09:29:25;;;;;;;4.22;1.98;;;25.20;47.90;;;;;;5029076;28;20433;-57
2021/07/01 09:31:52;;;;;;;2.17;1.60;;;25.20;47.90;;;;;;5025783;28;20033;-59
2021/07/01 09:34:17;;;;;;;2.88;2.15;;;25.20;47.90;;;;;;5017588;28;20041;-57
2021/07/01 09:36:44;;;;;;;2.95;1.83;;;25.10;47.80;;;;;;5012329;28;20103;-58
2021/07/01 09:39:10;;;;;;;3.10;1.90;;;25.10;47.80;;;;;;5018562;28;20136;-54
2021/07/01 09:41:37;;;;;;;2.92;2.00;;;25.10;47.80;;;;;;5017885;28;20418;-56
2021/07/01 09:44:04;;;;;;;2.13;1.80;;;25.10;47.80;;;;;;5016717;28;20068;-56
2021/07/01 09:46:32;;;;;;;3.90;2.15;;;25.10;47.80;;;;;;5019969;28;20025;-57
2021/07/01 09:49:01;;;;;;;3.28;1.90;;;25.10;47.80;;;;;;5019443;28;20025;-58
2021/07/01 09:51:29;;;;;;;3.90;1.95;;;25.10;47.90;;;;;;5014338;28;20100;-55
2021/07/01 09:53:55;;;;;;;2.00;1.65;;;25.10;47.80;;;;;;5001361;28;20058;-55
2021/07/01 09:56:42;;;;;;;5.78;2.25;;;25.00;47.80;;;;;;5006691;28;21720;-62
2021/07/01 09:59:19;;;;;;;2.50;1.52;;;25.10;47.80;;;;;;5021245;28;20033;-59
2021/07/01 10:01:46;;;;;;;1.77;1.50;;;25.00;47.50;;;;;;5018472;28;20115;-56
2021/07/01 10:04:11;;;;;;;3.00;1.60;;;25.00;47.30;;;;;;5006093;28;20026;-55
2021/07/01 10:06:38;;;;;;;2.40;1.65;;;25.00;47.30;;;;;;5011022;28;20104;-57
2021/07/01 10:09:07;;;;;;;2.65;1.55;;;25.00;47.40;;;;;;5005596;28;20381;-56
2021/07/01 10:11:34;;;;;;;2.72;1.50;;;25.00;47.40;;;;;;5016922;28;20033;-56
2021/07/01 10:14:17;;;;;;;2.78;1.45;;;25.00;47.40;;;;;;5019030;28;20121;-56
2021/07/01 10:16:43;;;;;;;2.58;1.50;;;25.00;47.50;;;;;;5015096;28;20109;-58
2021/07/01 10:19:17;;;;;;;1.95;1.40;;;25.00;47.60;;;;;;5017462;28;20377;-58
2021/07/01 10:21:44;;;;;;;3.53;1.88;;;25.00;47.60;;;;;;5012064;28;20080;-56
2021/07/01 10:24:14;;;;;;;3.13;1.40;;;24.90;47.70;;;;;;5015683;28;20040;-54
2021/07/01 10:26:45;;;;;;;3.50;1.85;;;25.00;47.90;;;;;;5012963;28;20033;-53
2021/07/01 10:29:12;;;;;;;2.17;1.63;;;25.00;48.00;;;;;;5017845;28;20115;-55
2021/07/01 10:31:56;;;;;;;4.80;1.73;;;25.00;48.10;;;;;;5019045;28;20025;-54
2021/07/01 10:34:30;;;;;;;4.68;2.08;;;25.00;48.30;;;;;;5019872;28;20037;-57
2021/07/01 10:37:16;;;;;;;3.53;1.98;;;25.10;48.40;;;;;;5014213;28;20125;-58
2021/07/01 10:39:43;;;;;;;3.70;2.10;;;25.10;48.40;;;;;;5011221;28;20038;-59
2021/07/01 10:42:09;;;;;;;2.65;1.92;;;25.10;48.40;;;;;;5016365;28;20121;-59
2021/07/01 10:44:35;;;;;;;3.28;2.08;;;25.10;48.40;;;;;;5015969;28;20105;-60
2021/07/01 10:47:01;;;;;;;4.38;2.25;;;25.10;48.40;;;;;;5015983;28;20156;-58
2021/07/01 10:49:37;;;;;;;3.85;2.13;;;25.20;48.50;;;;;;5016901;28;20066;-61
2021/07/01 10:52:04;;;;;;;3.40;2.22;;;25.20;48.50;;;;;;5009369;28;20026;-59
2021/07/01 10:54:30;;;;;;;3.13;2.05;;;25.10;48.40;;;;;;5002388;28;20373;-57
2021/07/01 10:57:07;;;;;;;3.15;2.08;;;25.20;48.50;;;;;;5001228;28;20018;-59
2021/07/01 10:59:53;;;;;;;3.30;1.95;;;25.20;48.50;;;;;;5008576;28;20030;-59
2021/07/01 11:02:28;;;;;;;4.43;2.17;;;25.20;48.50;;;;;;5003893;28;20085;-62
2021/07/01 11:04:58;;;;;;;2.80;2.10;;;25.10;48.50;;;;;;5009914;28;20030;-60
2021/07/01 11:07:25;;;;;;;2.65;2.30;;;25.10;48.40;;;;;;4998967;28;20500;-59
2021/07/01 11:09:55;;;;;;;2.92;2.22;;;25.10;48.40;;;;;;5006265;28;20030;-59
2021/07/01 11:12:23;;;;;;;3.83;2.40;;;25.10;48.40;;;;;;5002038;28;20045;-60
2021/07/01 11:14:54;;;;;;;4.93;2.22;;;25.10;48.40;;;;;;5008882;28;20050;-57
2021/07/01 11:17:29;;;;;;;3.67;2.22;;;25.10;48.40;;;;;;5002088;28;20031;-60
2021/07/01 11:19:55;;;;;;;3.25;2.00;;;25.10;48.40;;;;;;5001466;28;20350;-64
2021/07/01 11:22:41;;;;;;;3.25;2.25;;;25.10;48.50;;;;;;5005897;28;20035;-60
2021/07/01 11:25:23;;;;;;;4.13;2.60;;;25.10;48.40;;;;;;5006300;28;20454;-59
2021/07/01 11:27:49;;;;;;;3.38;2.05;;;25.10;48.40;;;;;;5003312;28;20026;-58
2021/07/01 11:30:23;;;;;;;5.20;2.17;;;25.10;48.40;;;;;;5011309;28;20029;-59
2021/07/01 11:32:49;;;;;;;3.83;2.53;;;25.10;48.40;;;;;;5013991;28;20026;-60
2021/07/01 11:35:23;;;;;;;3.67;2.25;;;25.10;48.50;;;;;;5020132;28;20064;-59
2021/07/01 11:37:50;;;;;;;3.42;2.13;;;25.10;48.50;;;;;;5017018;28;20061;-59
2021/07/01 11:40:22;;;;;;;2.22;1.85;;;25.10;48.60;;;;;;5016490;28;20382;-61
2021/07/01 11:42:53;;;;;;;4.07;2.50;;;25.10;48.60;;;;;;5019506;28;20365;-59
2021/07/01 11:45:20;;;;;;;3.88;2.35;;;25.10;48.70;;;;;;5019042;28;20050;-59
2021/07/01 11:47:47;;;;;;;2.97;2.40;;;25.10;48.70;;;;;;5024623;28;20044;-60
2021/07/01 11:50:13;;;;;;;3.00;2.05;;;25.10;48.70;;;;;;5020336;28;20022;-60
2021/07/01 11:52:42;;;;;;;2.85;1.95;;;25.10;48.70;;;;;;5016591;28;20030;-60
2021/07/01 11:55:08;;;;;;;3.60;1.92;;;25.10;48.70;;;;;;5013979;28;20041;-58
2021/07/01 11:57:34;;;;;;;3.40;2.10;;;25.10;48.70;;;;;;5008506;28;20038;-57
2021/07/01 12:00:00;;;;;;;3.13;2.25;;;25.10;48.70;;;;;;5005368;28;20045;-59
2021/07/01 12:02:26;;;;;;;3.25;2.45;;;25.10;48.70;;;;;;5006705;28;20033;-55
2021/07/01 12:04:52;;;;;;;3.92;2.20;;;25.10;48.70;;;;;;5012936;28;20101;-61
2021/07/01 12:07:27;;;;;;;2.63;1.70;;;25.10;48.70;;;;;;5008275;28;20072;-60
2021/07/01 12:09:55;;;;;;;2.47;1.80;;;25.10;48.70;;;;;;5017088;28;20048;-59
2021/07/01 12:12:22;;;;;;;3.63;2.35;;;25.10;48.80;;;;;;5007378;28;20532;-58
2021/07/01 12:15:02;;;;;;;3.03;2.00;;;25.10;48.80;;;;;;5014670;28;20047;-56
2021/07/01 12:17:48;;;;;;;3.97;2.03;;;25.10;48.80;;;;;;5006877;28;20036;-56
2021/07/01 12:20:32;;;;;;;3.63;2.30;;;25.10;48.70;;;;;;5009150;28;20446;-61
2021/07/01 12:23:00;;;;;;;3.40;2.03;;;25.10;48.70;;;;;;5001124;28;20049;-58
2021/07/01 12:25:25;;;;;;;2.80;1.90;;;25.10;48.70;;;;;;4996810;28;20026;-58
2021/07/01 12:28:06;;;;;;;4.35;2.08;;;25.00;48.60;;;;;;5006986;28;20049;-64
2021/07/01 12:31:03;;;;;;;3.38;1.95;;;25.10;48.80;;;;;;5004830;28;20476;-60
2021/07/01 12:33:48;;;;;;;3.35;2.30;;;25.10;48.90;;;;;;4999597;28;20464;-60
2021/07/01 12:36:50;;;;;;;6.40;2.20;;;25.10;48.90;;;;;;5027276;28;20056;-60
2021/07/01 12:39:21;;;;;;;3.42;2.10;;;25.10;49.00;;;;;;5036553;28;20037;-59
2021/07/01 12:41:52;;;;;;;2.67;1.98;;;25.10;48.90;;;;;;5036531;28;20099;-59
2021/07/01 12:44:22;;;;;;;3.15;1.90;;;25.10;48.90;;;;;;5036102;28;20057;-61
2021/07/01 12:46:47;;;;;;;2.67;1.88;;;25.10;48.80;;;;;;5036099;28;20041;-61
2021/07/01 12:49:17;;;;;;;3.28;2.33;;;25.10;48.80;;;;;;5035213;28;20034;-59
2021/07/01 12:51:47;;;;;;;2.60;1.83;;;25.10;48.70;;;;;;5034116;28;20469;-59
2021/07/01 12:54:37;;;;;;;2.90;1.77;;;25.10;48.70;;;;;;5027268;28;20026;-61
2021/07/01 12:57:04;;;;;;;3.50;2.10;;;25.10;48.60;;;;;;5013975;28;20096;-60
2021/07/01 12:59:32;;;;;;;3.35;2.03;;;25.10;48.60;;;;;;5031730;28;20038;-58
2021/07/01 13:02:07;;;;;;;3.45;2.08;;;25.10;48.50;;;;;;5016124;28;20049;-57
2021/07/01 13:04:38;;;;;;;4.05;2.15;;;25.10;48.40;;;;;;5009090;28;20059;-59
2021/07/01 13:07:07;;;;;;;4.80;2.38;;;25.10;48.40;;;;;;5003153;28;20068;-61
2021/07/01 13:09:38;;;;;;;4.57;1.80;;;25.10;48.40;;;;;;5002132;28;20034;-60